createdAt,value
2017-03-18T00:05:17.824Z,4.9
2017-03-18T00:15:29.174Z,4.9
2017-03-18T00:25:40.580Z,4.8
2017-03-18T00:35:51.976Z,4.8
2017-03-18T00:46:03.279Z,4.7
2017-03-18T00:56:14.646Z,4.8
2017-03-18T01:06:25.936Z,4.9
2017-03-18T01:16:37.238Z,5.1
2017-03-18T01:26:48.526Z,5
2017-03-18T01:36:59.950Z,5.2
2017-03-18T01:47:11.212Z,5.4
2017-03-18T01:57:22.533Z,5.5
2017-03-18T02:07:33.784Z,5.8
2017-03-18T02:17:45.023Z,5.9
2017-03-18T02:27:56.274Z,5.9
2017-03-18T02:38:07.530Z,5.9
2017-03-18T02:48:18.697Z,6
2017-03-18T02:58:29.925Z,6
2017-03-18T03:08:41.133Z,6.1
2017-03-18T03:18:52.390Z,6.2
2017-03-18T03:29:03.573Z,6.2
2017-03-18T03:39:14.741Z,6.4
2017-03-18T03:49:25.872Z,6.4
2017-03-18T03:59:37.013Z,6.6
2017-03-18T04:09:48.154Z,6.8
2017-03-18T04:19:59.279Z,6.9
2017-03-18T04:30:10.341Z,7
2017-03-18T04:40:21.433Z,7.1
2017-03-18T04:50:32.474Z,7.2
2017-03-18T05:00:43.491Z,7.3
2017-03-18T05:10:54.459Z,7.4
2017-03-18T05:21:05.344Z,7.6
2017-03-18T05:31:16.245Z,7.7
2017-03-18T05:41:27.214Z,7.8
2017-03-18T05:51:38.145Z,8
2017-03-18T06:01:49.094Z,8.1
2017-03-18T06:12:00.037Z,8.5
2017-03-18T06:22:10.871Z,8.8
2017-03-18T06:32:21.682Z,9
2017-03-18T06:42:32.385Z,9.2
2017-03-18T06:52:42.995Z,9.2
2017-03-18T07:02:53.596Z,9.4
2017-03-18T07:13:04.241Z,9.5
2017-03-18T07:23:14.848Z,9.4
2017-03-18T07:33:25.459Z,9.6
2017-03-18T07:43:36.034Z,9.5
2017-03-18T07:53:46.490Z,9.5
2017-03-18T08:03:56.907Z,9.6
2017-03-18T08:14:07.370Z,9.6
2017-03-18T08:24:17.814Z,9.7
2017-03-18T08:34:28.296Z,9.6
2017-03-18T08:44:38.752Z,9.7
2017-03-18T08:54:49.217Z,9.5
2017-03-18T09:04:59.675Z,9.4
2017-03-18T09:15:10.041Z,9.9
2017-03-18T09:25:20.266Z,10.4
2017-03-18T09:35:30.396Z,10.4
2017-03-18T09:45:40.635Z,9.6
2017-03-18T09:55:50.939Z,9.1
2017-03-18T10:06:01.195Z,9.2
2017-03-18T10:16:11.356Z,9.3
2017-03-18T10:26:21.403Z,9.4
2017-03-18T10:36:31.446Z,9.4
2017-03-18T10:46:41.478Z,9.4
2017-03-18T10:56:51.450Z,9.7
2017-03-18T11:07:01.383Z,10
2017-03-18T11:17:11.215Z,10.2
2017-03-18T11:27:20.947Z,10.3
2017-03-18T11:37:30.535Z,10.4
2017-03-18T11:47:40.155Z,10.2
2017-03-18T11:57:49.866Z,10.2
2017-03-18T12:07:59.709Z,10
2017-03-18T12:18:09.526Z,9.7
2017-03-18T12:28:19.224Z,10.1
2017-03-18T12:38:28.868Z,10.1
2017-03-18T12:48:38.545Z,10.1
2017-03-18T12:58:48.271Z,10.1
2017-03-18T13:08:58.161Z,10
2017-03-18T13:19:08.011Z,10.3
2017-03-18T13:29:17.924Z,10.2
2017-03-18T13:39:27.927Z,10.1
2017-03-18T13:49:37.974Z,10
2017-03-18T13:59:48.076Z,9.7
2017-03-18T14:09:58.319Z,9.3
2017-03-18T14:20:08.602Z,9.2
2017-03-18T14:30:18.889Z,9.3
2017-03-18T14:40:29.184Z,9.2
2017-03-18T14:50:39.551Z,9.4
2017-03-18T15:00:49.895Z,9.4
2017-03-18T15:11:00.158Z,9.3
2017-03-18T15:21:10.375Z,9.3
2017-03-18T15:31:20.604Z,9.4
2017-03-18T15:41:30.889Z,9.4
2017-03-18T15:51:41.074Z,9.2
2017-03-18T16:01:51.423Z,9.1
2017-03-18T16:12:01.877Z,9.1
2017-03-18T16:22:12.329Z,9
2017-03-18T16:32:22.825Z,9
2017-03-18T16:42:33.356Z,9
2017-03-18T16:52:43.920Z,8.9
2017-03-18T17:02:54.470Z,8.9
2017-03-18T17:13:05.058Z,8.9
2017-03-18T17:23:15.638Z,8.8
2017-03-18T17:33:26.273Z,8.8
2017-03-18T17:43:36.964Z,8.7
2017-03-18T17:53:47.716Z,8.6
2017-03-18T18:03:58.471Z,8.5
2017-03-18T18:14:09.256Z,8.5
2017-03-18T18:24:19.973Z,8.5
2017-03-18T18:34:30.711Z,8.5
2017-03-18T18:44:41.516Z,8.5
2017-03-18T18:54:52.311Z,8.5
2017-03-18T19:05:03.090Z,8.5
2017-03-18T19:15:13.848Z,8.4
2017-03-18T19:25:24.584Z,8.3
2017-03-18T19:35:35.374Z,8.2
2017-03-18T19:45:46.118Z,8.2
2017-03-18T19:55:56.890Z,8.1
2017-03-18T20:06:07.722Z,8.1
2017-03-18T20:16:18.602Z,8
2017-03-18T20:26:29.440Z,8
2017-03-18T20:36:40.277Z,7.9
2017-03-18T20:46:51.161Z,8
2017-03-18T20:57:02.047Z,7.9
2017-03-18T21:07:12.887Z,7.9
2017-03-18T21:17:23.768Z,7.9
2017-03-18T21:27:34.584Z,7.8
2017-03-18T21:37:45.342Z,7.9
2017-03-18T21:47:56.145Z,8
2017-03-18T21:58:06.964Z,8
2017-03-18T22:08:17.771Z,7.9
2017-03-18T22:18:28.555Z,7.9
2017-03-18T22:28:39.326Z,7.9
2017-03-18T22:38:50.101Z,7.9
2017-03-18T22:49:00.907Z,7.8
2017-03-18T22:59:11.788Z,7.8
2017-03-18T23:09:22.623Z,7.7
2017-03-18T23:19:33.512Z,7.7
2017-03-18T23:29:44.435Z,7.7
2017-03-18T23:39:55.391Z,7.7
2017-03-18T23:50:06.330Z,7.7
